createdAt,value
2017-11-20T00:01:39.148Z,4.50
2017-11-20T00:04:05.429Z,4.50
2017-11-20T00:06:31.820Z,4.40
2017-11-20T00:08:58.066Z,4.50
2017-11-20T00:11:24.292Z,4.50
2017-11-20T00:13:50.696Z,4.40
2017-11-20T00:16:16.892Z,4.40
2017-11-20T00:18:43.095Z,4.30
2017-11-20T00:21:10.219Z,4.20
2017-11-20T00:23:36.419Z,4.20
2017-11-20T00:26:03.368Z,4.10
2017-11-20T00:28:29.770Z,4.10
2017-11-20T00:30:55.975Z,4.10
2017-11-20T00:33:22.198Z,4.10
2017-11-20T00:35:48.570Z,4.20
2017-11-20T00:38:15.523Z,4.20
2017-11-20T00:40:42.822Z,4.30
2017-11-20T00:43:09.246Z,4.30
2017-11-20T00:45:35.455Z,4.30
2017-11-20T00:48:01.669Z,4.30
2017-11-20T00:50:28.035Z,4.20
2017-11-20T00:52:54.231Z,4.30
2017-11-20T00:55:21.167Z,4.30
2017-11-20T00:57:48.450Z,4.30
2017-11-20T01:00:14.690Z,4.30
2017-11-20T01:02:40.950Z,4.20
2017-11-20T01:05:07.339Z,4.20
2017-11-20T01:07:33.554Z,4.20
2017-11-20T01:09:59.745Z,4.20
2017-11-20T01:12:26.174Z,4.20
2017-11-20T01:14:52.363Z,4.20
2017-11-20T01:17:19.009Z,4.10
2017-11-20T01:19:45.387Z,4.10
2017-11-20T01:22:12.405Z,4.10
2017-11-20T01:24:38.598Z,4.00
2017-11-20T01:27:05.027Z,3.90
2017-11-20T01:29:31.263Z,3.80
2017-11-20T01:31:57.514Z,3.80
2017-11-20T01:34:23.926Z,3.70
2017-11-20T01:36:50.167Z,3.70
2017-11-20T01:39:16.389Z,3.60
2017-11-20T01:41:43.229Z,3.60
2017-11-20T01:44:09.445Z,3.60
2017-11-20T01:46:35.651Z,3.70
2017-11-20T01:49:02.795Z,3.70
2017-11-20T01:51:29.797Z,3.70
2017-11-20T01:53:56.027Z,3.70
2017-11-20T01:56:22.431Z,3.80
2017-11-20T01:58:48.658Z,3.70
2017-11-20T02:01:14.899Z,3.70
2017-11-20T02:03:41.302Z,3.70
2017-11-20T02:06:08.275Z,3.60
2017-11-20T02:08:35.264Z,3.50
2017-11-20T02:11:01.666Z,3.50
2017-11-20T02:13:27.903Z,3.40
2017-11-20T02:15:54.156Z,3.40
2017-11-20T02:18:20.610Z,3.40
2017-11-20T02:20:47.575Z,3.30
2017-11-20T02:23:13.802Z,3.30
2017-11-20T02:25:40.342Z,3.20
2017-11-20T02:28:06.562Z,3.20
2017-11-20T02:30:32.798Z,3.20
2017-11-20T02:32:59.223Z,3.10
2017-11-20T02:35:25.526Z,3.10
2017-11-20T02:37:52.509Z,3.10
2017-11-20T02:40:18.893Z,3.00
2017-11-20T02:42:45.435Z,3.00
2017-11-20T02:45:11.675Z,3.00
2017-11-20T02:47:38.855Z,2.90
2017-11-20T02:50:05.110Z,2.90
2017-11-20T02:52:31.356Z,2.90
2017-11-20T02:54:57.806Z,2.80
2017-11-20T02:57:24.031Z,2.80
2017-11-20T02:59:50.306Z,2.80
2017-11-20T03:02:16.689Z,2.80
2017-11-20T03:04:42.903Z,2.80
2017-11-20T03:07:09.133Z,2.90
2017-11-20T03:09:35.569Z,2.90
2017-11-20T03:12:01.795Z,2.90
2017-11-20T03:14:28.022Z,2.90
2017-11-20T03:16:54.470Z,3.00
2017-11-20T03:19:20.771Z,3.00
2017-11-20T03:21:47.066Z,3.10
2017-11-20T03:24:13.602Z,3.10
2017-11-20T03:26:39.843Z,3.20
2017-11-20T03:29:06.060Z,3.30
2017-11-20T03:31:32.444Z,3.30
2017-11-20T03:33:58.674Z,3.40
2017-11-20T03:36:24.902Z,3.40
2017-11-20T03:38:51.293Z,3.50
2017-11-20T03:41:18.267Z,3.60
2017-11-20T03:43:44.798Z,3.60
2017-11-20T03:46:11.086Z,3.60
2017-11-20T03:48:37.298Z,3.70
2017-11-20T03:51:04.278Z,3.70
2017-11-20T03:53:30.621Z,3.70
2017-11-20T03:55:56.849Z,3.80
2017-11-20T03:58:23.071Z,3.80
2017-11-20T04:00:49.315Z,3.80
2017-11-20T04:03:15.548Z,3.80
2017-11-20T04:05:41.823Z,3.90
2017-11-20T04:08:08.782Z,3.90
2017-11-20T04:10:35.023Z,3.90
2017-11-20T04:13:01.230Z,3.90
2017-11-20T04:15:27.446Z,3.90
2017-11-20T04:17:54.441Z,4.00
2017-11-20T04:20:20.649Z,3.90
2017-11-20T04:22:46.882Z,4.00
2017-11-20T04:25:13.107Z,4.00
2017-11-20T04:30:12.298Z,4.00
2017-11-20T04:32:39.267Z,4.10
2017-11-20T04:35:05.497Z,4.10
2017-11-20T04:37:31.718Z,4.10
2017-11-20T04:39:57.966Z,4.10
2017-11-20T04:42:24.195Z,4.10
2017-11-20T04:44:50.592Z,4.10
2017-11-20T04:47:17.547Z,4.10
2017-11-20T04:49:43.824Z,4.10
2017-11-20T04:52:10.042Z,4.10
2017-11-20T04:54:36.266Z,4.20
2017-11-20T04:57:02.476Z,4.20
2017-11-20T04:59:28.708Z,4.20
2017-11-20T05:01:54.928Z,4.20
2017-11-20T05:04:22.218Z,4.20
2017-11-20T05:06:48.414Z,4.20
2017-11-20T05:09:14.661Z,4.20
2017-11-20T05:11:40.874Z,4.30
2017-11-20T05:14:07.106Z,4.30
2017-11-20T05:16:33.319Z,4.30
2017-11-20T05:18:59.541Z,4.30
2017-11-20T05:21:25.755Z,4.30
2017-11-20T05:23:52.795Z,4.30
2017-11-20T05:26:19.726Z,4.30
2017-11-20T05:28:45.962Z,4.30
2017-11-20T05:31:12.193Z,4.30
2017-11-20T05:33:39.166Z,4.30
2017-11-20T05:36:05.407Z,4.30
2017-11-20T05:38:31.692Z,4.30
2017-11-20T05:40:58.641Z,4.40
2017-11-20T05:43:25.611Z,4.40
2017-11-20T05:45:51.826Z,4.40
2017-11-20T05:48:18.822Z,4.40
2017-11-20T05:50:45.061Z,4.40
2017-11-20T05:53:11.275Z,4.50
2017-11-20T05:55:37.497Z,4.40
2017-11-20T05:58:03.739Z,4.50
2017-11-20T06:00:29.950Z,4.40
2017-11-20T06:02:56.185Z,4.40
2017-11-20T06:05:22.414Z,4.50
2017-11-20T06:07:48.658Z,4.50
2017-11-20T06:10:14.860Z,4.50
2017-11-20T06:12:41.078Z,4.50
2017-11-20T06:15:07.283Z,4.50
2017-11-20T06:17:33.518Z,4.60
2017-11-20T06:19:59.724Z,4.60
2017-11-20T06:22:25.967Z,4.60
2017-11-20T06:24:52.180Z,4.60
2017-11-20T06:27:19.151Z,4.60
2017-11-20T06:29:45.383Z,4.60
2017-11-20T06:32:11.581Z,4.60
2017-11-20T06:34:38.546Z,4.60
2017-11-20T06:37:04.782Z,4.60
2017-11-20T06:39:31.013Z,4.60
2017-11-20T06:41:57.205Z,4.60
2017-11-20T06:44:23.435Z,4.60
2017-11-20T06:46:50.412Z,4.60
2017-11-20T06:49:16.655Z,4.60
2017-11-20T06:51:42.862Z,4.60
2017-11-20T06:54:09.085Z,4.60
2017-11-20T06:56:35.286Z,4.50
2017-11-20T06:59:01.501Z,4.50
2017-11-20T07:01:27.705Z,4.60
2017-11-20T07:03:53.933Z,4.60
2017-11-20T07:06:20.159Z,4.60
2017-11-20T07:08:46.378Z,4.60
2017-11-20T07:11:13.374Z,4.60
2017-11-20T07:13:40.347Z,4.70
2017-11-20T07:16:06.553Z,4.60
2017-11-20T07:18:33.522Z,4.70
2017-11-20T07:20:59.730Z,4.70
2017-11-20T07:23:26.735Z,4.70
2017-11-20T07:26:05.292Z,4.70
2017-11-20T07:28:44.559Z,4.80
2017-11-20T07:31:19.826Z,4.80
2017-11-20T07:33:58.427Z,4.80
2017-11-20T07:36:36.936Z,4.80
2017-11-20T07:39:14.198Z,4.80
2017-11-20T07:41:49.362Z,4.90
2017-11-20T07:44:15.605Z,4.80
2017-11-20T07:46:41.839Z,4.90
2017-11-20T07:49:08.083Z,4.90
2017-11-20T07:51:34.288Z,4.90
2017-11-20T07:54:00.534Z,4.90
2017-11-20T07:56:26.767Z,5.00
2017-11-20T07:58:52.998Z,4.90
2017-11-20T08:01:19.210Z,4.90
2017-11-20T08:03:45.438Z,4.90
2017-11-20T08:06:11.676Z,4.90
2017-11-20T08:08:37.910Z,4.90
2017-11-20T08:11:04.135Z,4.90
2017-11-20T08:13:30.375Z,4.90
2017-11-20T08:15:56.584Z,4.90
2017-11-20T08:18:22.799Z,4.90
2017-11-20T08:20:49.003Z,4.90
2017-11-20T08:23:15.318Z,4.90
2017-11-20T08:25:42.270Z,4.90
2017-11-20T08:28:08.508Z,4.90
2017-11-20T08:30:34.736Z,5.00
2017-11-20T08:33:00.976Z,5.00
2017-11-20T08:35:27.226Z,5.00
2017-11-20T08:37:53.454Z,5.00
2017-11-20T08:40:19.658Z,5.10
2017-11-20T08:42:45.945Z,5.10
2017-11-20T08:45:13.645Z,5.00
2017-11-20T08:47:39.890Z,5.00
2017-11-20T08:50:06.163Z,5.10
2017-11-20T08:52:32.408Z,5.10
2017-11-20T08:54:59.368Z,5.00
2017-11-20T08:57:25.618Z,5.00
2017-11-20T08:59:51.818Z,5.10
2017-11-20T09:02:18.834Z,5.00
2017-11-20T09:04:45.063Z,5.00
2017-11-20T09:07:11.328Z,5.00
2017-11-20T09:09:37.551Z,5.10
2017-11-20T09:12:03.826Z,5.10
2017-11-20T09:14:30.047Z,5.20
2017-11-20T09:16:56.295Z,5.20
2017-11-20T09:19:22.519Z,5.10
2017-11-20T09:21:48.768Z,5.20
2017-11-20T09:24:14.987Z,5.20
2017-11-20T09:26:41.252Z,5.10
2017-11-20T09:29:07.504Z,5.10
2017-11-20T09:31:33.737Z,5.20
2017-11-20T09:33:59.963Z,5.20
2017-11-20T09:36:26.236Z,5.20
2017-11-20T09:38:52.477Z,5.20
2017-11-20T09:41:19.437Z,5.20
2017-11-20T09:43:46.446Z,5.20
2017-11-20T09:46:12.712Z,5.20
2017-11-20T09:48:40.414Z,5.30
2017-11-20T09:51:06.631Z,5.30
2017-11-20T09:53:32.918Z,5.30
2017-11-20T09:55:59.887Z,5.30
2017-11-20T09:58:26.135Z,5.30
2017-11-20T10:00:52.337Z,5.30
2017-11-20T10:03:18.591Z,5.30
2017-11-20T10:05:44.851Z,5.30
2017-11-20T10:08:11.096Z,5.40
2017-11-20T10:10:37.331Z,5.40
2017-11-20T10:13:04.315Z,5.40
2017-11-20T10:15:30.549Z,5.40
2017-11-20T10:17:56.974Z,5.50
2017-11-20T10:20:23.190Z,5.50
2017-11-20T10:22:49.494Z,5.50
2017-11-20T10:25:16.467Z,5.50
2017-11-20T10:27:42.726Z,5.50
2017-11-20T10:30:08.968Z,5.50
2017-11-20T10:32:35.234Z,5.50
2017-11-20T10:35:02.224Z,5.50
2017-11-20T10:37:28.499Z,5.50
2017-11-20T10:39:54.729Z,5.50
2017-11-20T10:42:22.706Z,5.40
2017-11-20T10:44:49.670Z,5.40
2017-11-20T10:47:15.903Z,5.40
2017-11-20T10:49:42.130Z,5.40
2017-11-20T10:52:08.363Z,5.40
2017-11-20T10:54:34.599Z,5.40
2017-11-20T10:57:00.850Z,5.40
2017-11-20T10:59:27.083Z,5.40
2017-11-20T11:01:53.338Z,5.40
2017-11-20T11:04:19.617Z,5.40
2017-11-20T11:06:45.890Z,5.40
2017-11-20T11:09:12.125Z,5.50
2017-11-20T11:11:38.358Z,5.50
2017-11-20T11:14:04.595Z,5.50
2017-11-20T11:16:30.846Z,5.40
2017-11-20T11:18:57.072Z,5.50
2017-11-20T11:21:23.355Z,5.50
2017-11-20T11:23:49.607Z,5.50
2017-11-20T11:26:16.582Z,5.50
2017-11-20T11:28:42.854Z,5.50
2017-11-20T11:31:09.101Z,5.50
2017-11-20T11:33:36.131Z,5.40
2017-11-20T11:36:02.388Z,5.40
2017-11-20T11:38:29.380Z,5.50
2017-11-20T11:40:55.609Z,5.50
2017-11-20T11:43:21.861Z,5.60
2017-11-20T11:45:48.098Z,5.60
2017-11-20T11:48:14.346Z,5.60
2017-11-20T11:50:41.332Z,5.60
2017-11-20T11:53:07.588Z,5.50
2017-11-20T11:55:33.912Z,5.50
2017-11-20T11:58:00.175Z,5.60
2017-11-20T12:00:27.158Z,5.50
2017-11-20T12:02:53.371Z,5.40
2017-11-20T12:05:19.605Z,5.40
2017-11-20T12:07:45.855Z,5.40
2017-11-20T12:10:12.130Z,5.40
2017-11-20T12:12:38.378Z,5.40
2017-11-20T12:15:05.337Z,5.40
2017-11-20T12:17:31.610Z,5.40
2017-11-20T12:19:57.842Z,5.30
2017-11-20T12:22:24.226Z,5.30
2017-11-20T12:24:50.472Z,5.30
2017-11-20T12:27:16.707Z,5.30
2017-11-20T12:29:42.953Z,5.30
2017-11-20T12:32:09.211Z,5.20
2017-11-20T12:34:35.446Z,5.20
2017-11-20T12:37:02.454Z,5.10
2017-11-20T12:39:28.679Z,5.10
2017-11-20T12:41:54.926Z,5.00
2017-11-20T12:44:21.172Z,5.10
2017-11-20T12:46:47.430Z,5.00
2017-11-20T12:49:13.647Z,4.90
2017-11-20T12:51:39.902Z,4.90
2017-11-20T12:54:06.531Z,4.90
2017-11-20T12:56:32.830Z,4.90
2017-11-20T12:58:59.786Z,4.90
2017-11-20T13:01:26.759Z,4.90
2017-11-20T13:03:52.982Z,4.90
2017-11-20T13:06:19.240Z,4.90
2017-11-20T13:08:45.531Z,4.90
2017-11-20T13:11:11.788Z,4.80
2017-11-20T13:13:38.042Z,4.80
2017-11-20T13:16:04.305Z,4.80
2017-11-20T13:18:31.315Z,4.80
2017-11-20T13:20:57.646Z,4.80
2017-11-20T13:23:23.874Z,4.80
2017-11-20T13:25:50.131Z,4.70
2017-11-20T13:28:16.338Z,4.70
2017-11-20T13:30:42.590Z,4.70
2017-11-20T13:33:09.563Z,4.60
2017-11-20T13:35:35.845Z,4.60
2017-11-20T13:38:02.093Z,4.60
2017-11-20T13:40:29.079Z,4.60
2017-11-20T13:42:55.298Z,4.60
2017-11-20T13:45:21.671Z,4.60
2017-11-20T13:47:47.896Z,4.60
2017-11-20T13:50:14.203Z,4.60
2017-11-20T13:52:40.471Z,4.60
2017-11-20T13:55:06.759Z,4.70
2017-11-20T13:57:33.006Z,4.60
2017-11-20T13:59:59.284Z,4.60
2017-11-20T14:02:26.321Z,4.60
2017-11-20T14:04:53.318Z,4.60
2017-11-20T14:07:19.613Z,4.60
2017-11-20T14:09:45.862Z,4.60
2017-11-20T14:12:12.107Z,4.60
2017-11-20T14:14:38.405Z,4.50
2017-11-20T14:17:04.669Z,4.50
2017-11-20T14:19:30.942Z,4.50
2017-11-20T14:21:57.919Z,4.50
2017-11-20T14:24:24.124Z,4.50
2017-11-20T14:26:51.250Z,4.50
2017-11-20T14:29:17.474Z,4.50
2017-11-20T14:31:43.751Z,4.50
2017-11-20T14:34:10.004Z,4.60
2017-11-20T14:36:36.278Z,4.60
2017-11-20T14:39:03.274Z,4.60
2017-11-20T14:41:29.527Z,4.60
2017-11-20T14:43:55.771Z,4.70
2017-11-20T14:46:22.062Z,4.50
2017-11-20T14:48:49.283Z,4.60
2017-11-20T14:54:23.040Z,4.50
2017-11-20T14:56:49.262Z,4.50
2017-11-20T14:59:15.516Z,4.40
2017-11-20T15:01:57.750Z,4.50
2017-11-20T15:04:24.013Z,4.50
2017-11-20T15:06:50.253Z,4.40
2017-11-20T15:09:16.489Z,4.40
2017-11-20T15:11:42.733Z,4.40
2017-11-20T15:14:09.020Z,4.40
2017-11-20T15:16:35.241Z,4.40
2017-11-20T15:19:01.500Z,4.30
2017-11-20T15:21:27.739Z,4.30
2017-11-20T15:23:53.979Z,4.40
2017-11-20T15:26:20.202Z,4.30
2017-11-20T15:28:46.453Z,4.30
2017-11-20T15:31:12.667Z,4.10
2017-11-20T15:33:38.906Z,4.10
2017-11-20T15:36:05.147Z,4.10
2017-11-20T15:38:32.133Z,4.20
2017-11-20T15:40:58.410Z,4.20
2017-11-20T15:43:24.680Z,4.30
2017-11-20T15:45:50.919Z,4.30
2017-11-20T15:48:17.204Z,4.20
2017-11-20T15:50:43.429Z,4.20
2017-11-20T15:53:09.642Z,4.20
2017-11-20T15:55:35.880Z,4.30
2017-11-20T15:58:02.202Z,4.30
2017-11-20T16:00:28.503Z,4.30
2017-11-20T16:02:54.743Z,4.30
2017-11-20T16:05:21.015Z,4.30
2017-11-20T16:07:47.986Z,4.40
2017-11-20T16:10:14.253Z,4.30
2017-11-20T16:12:41.236Z,4.30
2017-11-20T16:15:08.215Z,4.20
2017-11-20T16:17:34.460Z,4.20
2017-11-20T16:20:00.717Z,4.20
2017-11-20T16:22:26.934Z,4.20
2017-11-20T16:24:53.197Z,4.20
2017-11-20T16:27:20.219Z,4.20
2017-11-20T16:29:46.462Z,4.10
2017-11-20T16:32:12.698Z,4.10
2017-11-20T16:34:39.691Z,4.20
2017-11-20T16:37:05.935Z,4.10
2017-11-20T16:39:32.175Z,4.20
2017-11-20T16:41:58.411Z,4.20
2017-11-20T16:44:24.665Z,4.10
2017-11-20T16:46:51.654Z,4.00
2017-11-20T16:49:17.896Z,4.00
2017-11-20T16:51:44.143Z,4.00
2017-11-20T16:54:10.387Z,4.10
2017-11-20T16:56:37.496Z,4.10
2017-11-20T16:59:07.581Z,4.10
2017-11-20T17:01:46.270Z,4.20
2017-11-20T17:04:12.511Z,4.20
2017-11-20T17:06:39.502Z,4.10
2017-11-20T17:09:05.769Z,4.10
2017-11-20T17:11:32.021Z,4.20
2017-11-20T17:13:59.014Z,4.20
2017-11-20T17:16:25.226Z,4.20
2017-11-20T17:18:51.468Z,4.20
2017-11-20T17:21:17.672Z,4.10
2017-11-20T17:23:43.923Z,4.10
2017-11-20T17:26:10.127Z,4.10
2017-11-20T17:28:36.352Z,4.10
2017-11-20T17:31:02.591Z,4.30
2017-11-20T17:33:28.851Z,4.30
2017-11-20T17:35:55.087Z,4.30
2017-11-20T17:38:21.337Z,4.30
2017-11-20T17:40:48.301Z,4.30
2017-11-20T17:43:14.631Z,4.30
2017-11-20T17:45:40.853Z,4.40
2017-11-20T17:48:07.834Z,4.50
2017-11-20T17:50:34.034Z,4.50
2017-11-20T17:53:00.268Z,4.60
2017-11-20T17:55:26.483Z,4.40
2017-11-20T17:57:52.746Z,4.40
2017-11-20T18:00:19.012Z,4.30
2017-11-20T18:02:45.256Z,4.40
2017-11-20T18:05:12.302Z,4.40
2017-11-20T18:07:38.552Z,4.40
2017-11-20T18:10:04.757Z,4.50
2017-11-20T18:12:30.969Z,4.50
2017-11-20T18:14:57.246Z,4.50
2017-11-20T18:17:23.512Z,4.50
2017-11-20T18:19:49.757Z,4.40
2017-11-20T18:22:16.010Z,4.40
2017-11-20T18:24:43.015Z,4.40
2017-11-20T18:27:09.260Z,4.40
2017-11-20T18:29:35.537Z,4.40
2017-11-20T18:32:01.767Z,4.40
2017-11-20T18:34:28.003Z,4.40
2017-11-20T18:36:54.290Z,4.50
2017-11-20T18:39:20.556Z,4.50
2017-11-20T18:41:46.802Z,4.50
2017-11-20T18:44:13.077Z,4.50
2017-11-20T18:46:40.071Z,4.50
2017-11-20T18:49:06.387Z,4.50
2017-11-20T18:51:32.617Z,4.50
2017-11-20T18:53:58.895Z,4.50
2017-11-20T18:56:25.157Z,4.50
2017-11-20T18:58:51.411Z,4.50
2017-11-20T19:01:38.780Z,4.60
2017-11-20T19:04:17.263Z,4.60
2017-11-20T19:06:55.930Z,4.50
2017-11-20T19:09:22.216Z,4.60
2017-11-20T19:11:48.509Z,4.50
2017-11-20T19:14:14.767Z,4.50
2017-11-20T19:16:41.036Z,4.40
2017-11-20T19:19:07.268Z,4.40
2017-11-20T19:21:33.811Z,4.40
2017-11-20T19:24:00.829Z,4.40
2017-11-20T19:26:27.063Z,4.30
2017-11-20T19:28:53.337Z,4.30
2017-11-20T19:31:19.729Z,4.30
2017-11-20T19:33:46.248Z,4.20
2017-11-20T19:36:12.551Z,4.20
2017-11-20T19:38:38.778Z,4.20
2017-11-20T19:41:05.068Z,4.20
2017-11-20T19:43:32.050Z,4.20
2017-11-20T19:45:58.332Z,4.20
2017-11-20T19:48:24.614Z,4.20
2017-11-20T19:50:50.827Z,4.20
2017-11-20T19:53:17.134Z,4.20
2017-11-20T19:55:44.093Z,4.20
2017-11-20T19:58:10.549Z,4.20
2017-11-20T20:00:36.774Z,4.20
2017-11-20T20:03:03.040Z,4.20
2017-11-20T20:05:29.282Z,4.20
2017-11-20T20:07:55.543Z,4.20
2017-11-20T20:10:22.490Z,4.20
2017-11-20T20:12:48.750Z,4.20
2017-11-20T20:15:27.183Z,4.10
2017-11-20T20:17:53.509Z,4.10
2017-11-20T20:20:19.728Z,4.10
2017-11-20T20:22:45.951Z,4.10
2017-11-20T20:25:12.282Z,4.20
2017-11-20T20:27:39.036Z,4.20
2017-11-20T20:30:05.319Z,4.20
2017-11-20T20:32:31.724Z,4.20
2017-11-20T20:34:58.045Z,4.20
2017-11-20T20:37:24.273Z,4.20
2017-11-20T20:39:50.570Z,4.30
2017-11-20T20:42:16.827Z,4.30
2017-11-20T20:44:43.055Z,4.20
2017-11-20T20:47:09.468Z,4.30
2017-11-20T20:49:35.909Z,4.30
2017-11-20T20:52:02.189Z,4.20
2017-11-20T20:54:29.182Z,4.20
2017-11-20T20:56:55.435Z,4.20
2017-11-20T20:59:21.651Z,4.30
2017-11-20T21:01:47.905Z,4.30
2017-11-20T21:04:14.114Z,4.30
2017-11-20T21:06:46.370Z,4.30
2017-11-20T21:09:12.606Z,4.30
2017-11-20T21:11:45.056Z,4.30
2017-11-20T21:14:11.277Z,4.30
2017-11-20T21:16:38.331Z,4.30
2017-11-20T21:19:05.450Z,4.30
2017-11-20T21:21:31.703Z,4.30
2017-11-20T21:23:57.923Z,4.40
2017-11-20T21:26:24.246Z,4.30
2017-11-20T21:28:50.449Z,4.40
2017-11-20T21:31:17.423Z,4.40
2017-11-20T21:33:43.676Z,4.30
2017-11-20T21:36:09.971Z,4.40
2017-11-20T21:38:36.202Z,4.40
2017-11-20T21:41:02.464Z,4.40
2017-11-20T21:43:28.695Z,4.40
2017-11-20T21:45:54.951Z,4.40
2017-11-20T21:48:21.221Z,4.40
2017-11-20T21:50:47.627Z,4.50
2017-11-20T21:53:13.844Z,4.50
2017-11-20T21:55:40.118Z,4.40
2017-11-20T21:58:06.378Z,4.40
2017-11-20T22:00:32.624Z,4.40
2017-11-20T22:02:58.846Z,4.40
2017-11-20T22:05:25.065Z,4.50
2017-11-20T22:07:52.287Z,4.50
2017-11-20T22:10:18.510Z,4.50
2017-11-20T22:12:57.224Z,4.60
2017-11-20T22:15:23.341Z,4.60
2017-11-20T22:17:50.221Z,4.60
2017-11-20T22:20:16.328Z,4.50
2017-11-20T22:22:42.521Z,4.60
2017-11-20T22:25:09.451Z,4.60
2017-11-20T22:27:35.588Z,4.50
2017-11-20T22:30:01.723Z,4.60
2017-11-20T22:32:28.604Z,4.60
2017-11-20T22:34:55.472Z,4.60
2017-11-20T22:37:21.716Z,4.60
2017-11-20T22:39:47.815Z,4.60
2017-11-20T22:42:14.024Z,4.70
2017-11-20T22:44:40.173Z,4.80
2017-11-20T22:47:06.308Z,4.80
2017-11-20T22:49:32.432Z,4.80
2017-11-20T22:51:58.597Z,4.80
2017-11-20T22:54:25.456Z,4.70
2017-11-20T22:56:51.599Z,4.70
2017-11-20T22:59:17.712Z,4.80
2017-11-20T23:01:43.880Z,4.70
2017-11-20T23:04:10.120Z,4.70
2017-11-20T23:06:36.286Z,4.80
2017-11-20T23:09:02.457Z,4.80
2017-11-20T23:11:28.592Z,4.80
2017-11-20T23:13:54.756Z,4.70
2017-11-20T23:16:21.653Z,4.70
2017-11-20T23:18:47.776Z,4.70
2017-11-20T23:21:13.910Z,4.80
2017-11-20T23:23:40.042Z,4.80
2017-11-20T23:26:06.181Z,4.90
2017-11-20T23:28:32.307Z,4.90
2017-11-20T23:30:58.513Z,4.80
2017-11-20T23:33:24.652Z,4.90
2017-11-20T23:35:50.797Z,5.00
2017-11-20T23:38:16.913Z,4.90
2017-11-20T23:40:43.044Z,5.00
2017-11-20T23:43:09.176Z,5.00
2017-11-20T23:45:35.277Z,5.00
2017-11-20T23:48:01.417Z,5.10
2017-11-20T23:50:28.597Z,5.00
2017-11-20T23:52:54.717Z,5.00
2017-11-20T23:55:21.561Z,5.10
2017-11-20T23:57:48.442Z,5.10
